createdAt,value
2018-06-24T00:42:39.813Z,99.99
2018-06-24T00:43:41.359Z,99.99
2018-06-24T00:44:39.342Z,99.99
2018-06-24T00:45:40.774Z,99.99
2018-06-24T00:46:47.288Z,99.99
2018-06-24T00:47:39.279Z,99.99
2018-06-24T00:48:40.305Z,99.99
2018-06-24T00:49:39.352Z,99.99
2018-06-24T00:50:38.886Z,99.99
2018-06-24T00:51:41.276Z,99.99
2018-06-24T03:04:20.180Z,99.32
2018-06-24T03:06:20.178Z,98.65
2018-06-24T03:07:21.683Z,98.08
2018-06-24T03:08:23.095Z,98.27
2018-06-24T03:09:21.122Z,97.51
2018-06-24T03:10:20.452Z,96.89
2018-06-24T03:11:20.714Z,96.75
2018-06-24T03:12:20.917Z,95.46
2018-06-24T06:50:21.074Z,93.59
2018-06-24T06:51:10.955Z,95.36
2018-06-24T07:49:11.271Z,99.99
2018-06-24T07:49:57.676Z,99.99
2018-06-24T07:50:58.198Z,99.96
2018-06-24T07:51:58.702Z,99.99
2018-06-24T07:52:58.164Z,99.99
2018-06-24T07:53:59.198Z,99.99
2018-06-24T08:00:29.302Z,99.99
2018-06-24T08:01:22.294Z,99.39
2018-06-24T08:02:21.833Z,99.34
2018-06-24T08:03:21.524Z,98.19
2018-06-24T08:04:21.639Z,98.38
2018-06-24T08:05:32.797Z,98.91
2018-06-24T08:10:25.161Z,97.66
2018-06-24T08:11:26.576Z,97.47
2018-06-24T08:12:26.732Z,97.95
2018-06-24T08:27:47.858Z,98.19
2018-06-24T08:28:48.065Z,98.24
2018-06-24T08:29:49.198Z,97.66
2018-06-24T08:30:48.626Z,97.47
2018-06-24T08:31:48.757Z,97.76
2018-06-24T08:39:34.740Z,98.28
2018-06-24T08:39:59.242Z,98.24
2018-06-24T08:41:00.230Z,96.89
2018-06-24T08:41:59.550Z,97.66
2018-06-24T08:53:20.405Z,96.13
2018-06-24T08:56:22.357Z,96.13
2018-06-24T08:57:04.876Z,97.04
2018-06-24T08:58:04.309Z,95.98
2018-06-24T08:59:05.470Z,95.60
2018-06-24T09:00:05.277Z,95.31
2018-06-24T09:21:42.543Z,95.51
2018-06-24T09:22:43.581Z,96.66
2018-06-24T09:23:43.580Z,96.13
2018-06-24T09:24:43.238Z,94.88
2018-06-24T09:25:43.459Z,94.21
2018-06-24T09:35:37.886Z,94.88
2018-06-24T09:36:09.817Z,95.07
2018-06-24T09:37:09.423Z,94.49
2018-06-24T09:38:09.506Z,94.98
2018-06-24T09:39:09.723Z,94.40
2018-06-24T09:40:10.068Z,93.63
2018-06-24T09:41:10.062Z,93.49
2018-06-24T09:42:10.282Z,93.97
2018-06-24T09:43:10.617Z,94.69
2018-06-24T09:44:10.696Z,94.07
2018-06-24T09:45:10.891Z,95.03
2018-06-24T09:55:07.739Z,96.27
2018-06-24T09:56:00.736Z,95.89
2018-06-24T09:57:04.236Z,95.03
2018-06-24T09:58:01.901Z,95.41
2018-06-24T09:59:01.325Z,94.74
2018-06-24T10:00:01.489Z,94.26
2018-06-24T10:05:54.272Z,92.00
2018-06-24T10:06:33.426Z,91.91
2018-06-24T10:07:33.797Z,91.81
2018-06-24T10:08:34.143Z,91.57
2018-06-24T10:14:52.182Z,89.94
2018-06-24T10:15:41.600Z,90.08
2018-06-24T10:16:41.203Z,90.61
2018-06-24T10:36:58.613Z,89.40
2018-06-24T10:48:25.421Z,87.44
2018-06-24T10:49:10.918Z,88.40
2018-06-24T10:53:48.429Z,87.39
2018-06-24T10:54:49.226Z,87.68
2018-06-24T10:55:48.750Z,87.58
2018-06-24T10:56:49.437Z,86.33
2018-06-24T10:57:49.726Z,86.33
2018-06-24T10:58:50.233Z,86.48
2018-06-24T10:59:49.417Z,86.43
2018-06-24T11:00:50.228Z,87.19
2018-06-24T11:01:50.851Z,86.62
2018-06-24T11:02:50.101Z,86.91
2018-06-24T11:03:52.231Z,87.43
2018-06-24T11:04:50.772Z,86.57
2018-06-24T11:17:13.595Z,88.49
2018-06-24T11:19:16.003Z,88.06
2018-06-24T11:20:14.525Z,87.92
2018-06-24T11:21:15.056Z,88.11
2018-06-24T11:24:34.176Z,87.77
2018-06-24T11:25:12.666Z,88.02
2018-06-24T11:26:13.242Z,88.21
2018-06-24T11:27:13.207Z,88.83
2018-06-24T11:28:14.675Z,88.83
2018-06-24T11:29:12.688Z,89.22
2018-06-24T11:31:59.574Z,89.07
2018-06-24T11:33:00.383Z,88.98
2018-06-24T11:34:00.977Z,89.55
2018-06-24T11:35:01.038Z,90.32
2018-06-24T11:37:01.494Z,90.70
2018-06-24T11:38:01.383Z,90.42
2018-06-24T11:39:01.127Z,89.89
2018-06-24T11:40:01.334Z,90.95
2018-06-24T11:49:42.451Z,90.32
2018-06-24T11:50:20.360Z,90.70
2018-06-24T11:51:20.471Z,90.80
2018-06-24T11:52:20.809Z,90.99
2018-06-24T11:53:21.013Z,91.47
2018-06-24T11:56:19.696Z,90.61
2018-06-24T11:57:07.534Z,90.66
2018-06-24T11:58:07.749Z,91.81
2018-06-24T11:59:07.960Z,91.81
2018-06-24T12:00:08.170Z,91.62
2018-06-24T12:01:13.291Z,91.24
2018-06-24T12:02:08.630Z,91.42
2018-06-24T12:03:09.372Z,92.15
2018-06-24T12:04:08.994Z,93.40
2018-06-24T12:05:09.142Z,92.48
2018-06-24T12:06:09.342Z,91.72
2018-06-24T12:10:41.707Z,92.39
2018-06-24T12:11:43.967Z,92.96
2018-06-24T12:12:44.494Z,92.72
2018-06-24T12:13:42.997Z,92.63
2018-06-24T12:14:42.622Z,92.05
2018-06-24T12:15:42.798Z,92.14
2018-06-24T12:16:42.999Z,92.63
2018-06-24T12:17:43.109Z,91.81
2018-06-24T12:19:00.469Z,91.52
2018-06-24T12:19:43.588Z,91.52
2018-06-24T12:20:43.663Z,90.56
2018-06-24T12:21:43.909Z,90.61
2018-06-24T12:22:44.197Z,91.09
2018-06-24T12:23:44.364Z,91.47
2018-06-24T12:24:44.472Z,91.47
2018-06-24T12:25:44.692Z,91.38
2018-06-24T12:26:44.897Z,92.72
2018-06-24T12:27:45.097Z,92.10
2018-06-24T12:28:45.276Z,91.33
2018-06-24T12:29:45.476Z,90.32
2018-06-24T12:30:45.746Z,91.47
2018-06-24T12:31:45.850Z,92.05
2018-06-24T12:32:46.090Z,91.57
2018-06-24T12:33:46.283Z,90.61
2018-06-24T12:34:46.497Z,90.42
2018-06-24T12:35:46.874Z,90.66
2018-06-24T12:37:12.538Z,90.80
2018-06-24T12:37:46.987Z,90.42
2018-06-24T12:38:47.245Z,90.42
2018-06-24T12:48:30.600Z,87.96
2018-06-24T12:49:09.420Z,88.83
2018-06-24T12:50:10.497Z,87.19
2018-06-24T12:51:10.520Z,86.33
2018-06-24T12:52:10.678Z,86.05
2018-06-24T12:53:10.279Z,86.62
2018-06-24T12:54:10.294Z,87.10
2018-06-24T12:55:41.537Z,87.29
2018-06-24T12:56:10.684Z,87.87
2018-06-24T12:57:10.908Z,88.45
2018-06-24T12:58:11.130Z,88.16
2018-06-24T12:59:11.771Z,88.20
2018-06-24T13:00:11.910Z,87.92
2018-06-24T13:01:12.235Z,86.14
2018-06-24T13:02:11.897Z,86.24
2018-06-24T13:03:12.070Z,86.43
2018-06-24T13:04:12.247Z,86.52
2018-06-24T13:05:12.472Z,85.28
2018-06-24T13:09:55.637Z,86.09
2018-06-24T13:10:56.827Z,85.32
2018-06-24T13:11:56.105Z,84.36
2018-06-24T13:12:56.307Z,84.17
2018-06-24T13:13:56.543Z,84.74
2018-06-24T13:14:58.676Z,85.71
2018-06-24T13:15:57.687Z,84.55
2018-06-24T13:16:56.874Z,84.89
2018-06-24T13:17:57.057Z,85.28
2018-06-24T13:18:57.249Z,85.22
2018-06-24T13:19:57.451Z,85.61
2018-06-24T13:20:57.642Z,85.55
2018-06-24T13:35:05.112Z,83.78
2018-06-24T13:36:05.924Z,84.45
2018-06-24T13:37:22.101Z,83.69
2018-06-24T13:38:05.580Z,84.64
2018-06-24T13:39:12.427Z,84.31
2018-06-24T13:40:06.691Z,84.51
2018-06-24T13:41:06.170Z,83.30
2018-06-24T13:48:34.063Z,82.09
2018-06-24T13:49:07.551Z,82.38
2018-06-24T13:52:17.145Z,81.38
2018-06-24T13:52:42.649Z,81.28
2018-06-24T13:53:42.672Z,80.80
2018-06-24T13:54:43.643Z,80.47
2018-06-24T13:56:42.383Z,81.68
2018-06-24T13:57:42.548Z,82.51
2018-06-24T13:58:42.738Z,82.79
2018-06-24T13:59:42.946Z,84.04
2018-06-24T14:00:43.134Z,84.27
2018-06-24T14:01:43.317Z,84.37
2018-06-24T14:02:43.544Z,83.60
2018-06-24T14:03:43.731Z,84.37
2018-06-24T14:04:43.933Z,83.70
2018-06-24T14:05:44.132Z,83.60
2018-06-24T14:06:44.308Z,83.60
2018-06-24T14:07:44.532Z,82.64
2018-06-24T14:08:44.723Z,83.03
2018-06-24T14:09:44.910Z,84.56
2018-06-24T14:12:44.017Z,85.24
2018-06-24T14:13:36.241Z,84.27
2018-06-24T14:14:36.394Z,84.95
2018-06-24T14:15:36.484Z,85.24
2018-06-24T14:16:50.493Z,85.57
2018-06-24T14:17:36.929Z,82.35
2018-06-24T14:18:38.483Z,82.26
2018-06-24T14:19:37.286Z,83.31
2018-06-24T14:20:37.458Z,83.22
2018-06-24T14:21:37.665Z,81.97
2018-06-24T14:22:37.848Z,82.16
2018-06-24T14:23:38.030Z,83.31
2018-06-24T14:24:38.234Z,84.75
2018-06-24T14:25:38.495Z,86.38
2018-06-24T14:26:38.678Z,86.48
2018-06-24T14:27:38.853Z,86.00
2018-06-24T14:28:39.068Z,86.54
2018-06-24T14:29:39.234Z,86.34
2018-06-24T14:30:39.407Z,86.44
2018-06-24T14:31:39.595Z,84.71
2018-06-24T14:32:39.793Z,83.08
2018-06-24T14:33:39.974Z,83.27
2018-06-24T14:34:40.165Z,84.52
2018-06-24T14:35:40.350Z,84.23
2018-06-24T14:36:40.586Z,84.04
2018-06-24T14:37:40.759Z,85.14
2018-06-24T14:38:40.934Z,86.10
2018-06-24T14:39:41.130Z,86.58
2018-06-24T14:40:41.315Z,88.02
2018-06-24T14:41:41.513Z,87.88
2018-06-24T14:42:41.684Z,88.07
2018-06-24T14:43:41.894Z,88.45
2018-06-24T14:44:42.092Z,88.55
2018-06-24T14:45:42.387Z,89.32
2018-06-24T14:46:43.422Z,89.41
2018-06-24T14:47:42.651Z,89.22
2018-06-24T14:48:42.845Z,89.22
2018-06-24T14:49:43.035Z,89.46
2018-06-24T14:52:26.608Z,89.65
2018-06-24T14:53:27.838Z,89.46
2018-06-24T14:54:27.850Z,89.46
2018-06-24T14:55:28.450Z,89.17
2018-06-24T14:56:27.475Z,89.84
2018-06-24T14:57:27.697Z,89.17
2018-06-24T15:00:05.916Z,89.26
2018-06-24T15:00:28.088Z,89.84
2018-06-24T15:01:28.357Z,89.36
2018-06-24T15:02:28.511Z,89.36
2018-06-24T15:03:28.672Z,89.79
2018-06-24T15:04:28.881Z,89.41
2018-06-24T15:05:29.056Z,89.61
2018-06-24T15:06:29.253Z,89.51
2018-06-24T15:07:30.415Z,89.41
2018-06-24T15:08:29.596Z,90.32
2018-06-24T15:09:29.805Z,89.46
2018-06-24T15:10:30.013Z,89.32
2018-06-24T15:11:30.187Z,89.41
2018-06-24T15:12:30.378Z,90.66
2018-06-24T15:13:30.561Z,89.61
2018-06-24T15:14:30.743Z,90.28
2018-06-24T15:15:30.933Z,90.56
2018-06-24T15:16:31.128Z,90.66
2018-06-24T15:17:31.321Z,90.28
2018-06-24T15:18:31.491Z,90.18
2018-06-24T15:19:31.911Z,89.51
2018-06-24T15:20:31.874Z,89.51
2018-06-24T15:21:32.067Z,90.56
2018-06-24T15:22:32.264Z,90.56
2018-06-24T15:23:32.516Z,90.47
2018-06-24T15:24:32.700Z,90.95
2018-06-24T15:25:32.895Z,90.85
2018-06-24T15:26:33.068Z,90.47
2018-06-24T15:27:33.254Z,90.95
2018-06-24T15:28:33.442Z,90.66
2018-06-24T15:29:33.668Z,90.85
2018-06-24T15:30:33.875Z,90.75
2018-06-24T15:31:34.067Z,91.05
2018-06-24T15:32:34.280Z,91.62
2018-06-24T15:33:34.513Z,91.72
2018-06-24T15:34:34.722Z,91.14
2018-06-24T15:35:34.927Z,91.33
2018-06-24T15:36:35.117Z,91.14
2018-06-24T15:37:35.304Z,91.52
2018-06-24T15:38:35.497Z,91.33
2018-06-24T15:39:35.669Z,92.48
2018-06-24T15:40:35.848Z,92.29
2018-06-24T15:41:36.035Z,92.39
2018-06-24T15:42:36.209Z,92.77
2018-06-24T15:43:36.412Z,93.15
2018-06-24T15:44:36.599Z,93.44
2018-06-24T15:45:36.852Z,93.35
2018-06-24T15:46:37.011Z,93.25
2018-06-24T15:47:37.209Z,93.15
2018-06-24T15:48:37.416Z,93.35
2018-06-24T15:49:37.626Z,93.15
2018-06-24T15:50:37.813Z,93.68
2018-06-24T15:51:38.000Z,94.07
2018-06-24T15:52:38.259Z,94.35
2018-06-24T15:53:38.443Z,94.84
2018-06-24T15:54:39.387Z,94.64
2018-06-24T15:55:38.765Z,94.84
2018-06-24T15:56:38.955Z,95.03
2018-06-24T15:57:39.132Z,95.21
2018-06-24T15:58:39.870Z,95.51
2018-06-24T15:59:39.530Z,95.03
2018-06-24T16:00:39.727Z,95.03
2018-06-24T16:01:39.922Z,95.31
2018-06-24T16:02:40.187Z,95.46
2018-06-24T16:03:40.326Z,95.84
2018-06-24T16:04:43.011Z,95.94
2018-06-24T16:05:43.543Z,96.61
2018-06-24T16:06:41.873Z,96.89
2018-06-24T16:07:41.107Z,97.23
2018-06-24T16:08:41.328Z,96.61
2018-06-24T16:09:41.562Z,96.56
2018-06-24T16:10:41.808Z,96.37
2018-06-24T16:11:41.984Z,96.18
2018-06-24T16:12:42.184Z,96.08
2018-06-24T16:13:42.511Z,95.98
2018-06-24T16:14:42.647Z,95.98
2018-06-24T16:15:42.986Z,95.98
2018-06-24T16:16:43.865Z,95.51
2018-06-24T16:17:43.189Z,95.98
2018-06-24T16:18:43.364Z,95.79
2018-06-24T16:19:43.535Z,95.79
2018-06-24T16:20:43.918Z,96.08
2018-06-24T16:21:44.868Z,95.98
2018-06-24T16:22:44.070Z,95.60
2018-06-24T16:23:44.327Z,95.31
2018-06-24T16:24:44.403Z,95.46
2018-06-24T16:25:44.588Z,95.75
2018-06-24T16:26:44.786Z,95.56
2018-06-24T16:27:44.986Z,95.94
2018-06-24T16:28:45.149Z,96.22
2018-06-24T16:29:45.363Z,96.89
2018-06-24T16:30:45.575Z,96.61
2018-06-24T16:31:45.756Z,96.80
2018-06-24T16:32:45.934Z,97.66
2018-06-24T16:33:46.866Z,98.14
2018-06-24T16:34:46.365Z,97.56
2018-06-24T16:35:46.547Z,98.14
2018-06-24T16:36:46.754Z,97.85
2018-06-24T16:37:46.943Z,97.90
2018-06-24T16:38:47.140Z,98.05
2018-06-24T16:39:47.313Z,98.00
2018-06-24T16:40:47.498Z,97.85
2018-06-24T16:41:47.662Z,97.61
2018-06-24T16:42:47.848Z,97.76
2018-06-24T16:43:48.023Z,98.19
2018-06-24T16:44:48.202Z,98.14
2018-06-24T16:45:48.409Z,98.05
2018-06-24T16:46:48.582Z,97.80
2018-06-24T16:53:08.489Z,99.05
2018-06-24T16:53:39.565Z,99.05
2018-06-24T16:54:40.480Z,99.72
2018-06-24T16:56:04.042Z,99.82
2018-06-24T16:56:40.180Z,99.99
2018-06-24T16:58:53.892Z,99.63
2018-06-24T16:59:41.433Z,99.99
2018-06-24T17:00:40.888Z,99.99
2018-06-24T17:03:55.015Z,99.99
2018-06-24T17:04:48.555Z,99.99
2018-06-24T17:05:48.734Z,99.99
2018-06-24T17:06:48.914Z,99.99
2018-06-24T17:07:49.220Z,99.99
2018-06-24T17:08:49.345Z,99.99
2018-06-24T17:09:49.457Z,99.99
2018-06-24T17:10:49.670Z,99.99
2018-06-24T17:11:49.838Z,99.99
2018-06-24T17:12:50.043Z,99.99
2018-06-24T17:13:50.230Z,99.99
2018-06-24T17:14:50.416Z,99.99
2018-06-24T17:15:50.622Z,99.99
2018-06-24T17:16:50.809Z,99.99
2018-06-24T17:17:51.000Z,99.99
2018-06-24T17:18:51.900Z,99.99
2018-06-24T17:19:51.538Z,99.99
2018-06-24T17:20:51.721Z,99.99
2018-06-24T17:21:54.803Z,99.99
2018-06-24T17:24:03.835Z,99.99
2018-06-24T17:25:03.802Z,99.99
2018-06-24T17:26:03.432Z,99.99
2018-06-24T17:27:37.840Z,99.99
2018-06-24T17:28:03.817Z,99.99
2018-06-24T17:29:04.076Z,99.99
2018-06-24T17:30:04.118Z,99.99
2018-06-24T17:31:04.354Z,99.99
2018-06-24T17:32:04.574Z,99.99
2018-06-24T17:33:04.822Z,99.99
2018-06-24T17:34:04.888Z,99.99
2018-06-24T17:35:05.924Z,99.99
2018-06-24T17:36:05.231Z,99.99
2018-06-24T17:37:06.314Z,99.99
2018-06-24T17:38:06.331Z,99.99
2018-06-24T17:39:05.917Z,99.99
2018-06-24T17:40:05.996Z,99.99
2018-06-24T17:41:06.203Z,99.99
2018-06-24T17:42:06.395Z,99.99
2018-06-24T17:43:06.608Z,99.99
2018-06-24T17:44:06.884Z,99.99
2018-06-24T17:45:07.021Z,99.99
2018-06-24T17:46:07.191Z,99.99
2018-06-24T17:47:07.389Z,99.99
2018-06-24T17:48:07.591Z,99.99
2018-06-24T17:49:07.783Z,99.99
2018-06-24T17:50:07.954Z,99.99
2018-06-24T17:51:08.161Z,99.99
2018-06-24T17:52:08.377Z,99.99
2018-06-24T17:53:08.514Z,99.99
2018-06-24T17:54:08.676Z,99.99
2018-06-24T17:55:08.870Z,99.99
2018-06-24T17:56:09.045Z,99.99
2018-06-24T17:57:09.227Z,99.99
2018-06-24T17:58:09.409Z,99.99
2018-06-24T17:59:09.638Z,99.99
2018-06-24T18:00:09.822Z,99.99
2018-06-24T18:01:10.025Z,99.99
2018-06-24T18:02:10.211Z,99.99
2018-06-24T18:03:10.396Z,99.99
2018-06-24T18:04:10.581Z,99.99
2018-06-24T18:05:10.748Z,99.99
2018-06-24T18:06:10.922Z,99.99
2018-06-24T18:07:11.137Z,99.99
2018-06-24T18:08:11.373Z,99.99
2018-06-24T18:09:11.512Z,99.99
2018-06-24T18:10:11.686Z,99.99
2018-06-24T18:11:11.942Z,99.99
2018-06-24T18:12:12.094Z,99.99
2018-06-24T18:13:12.320Z,99.99
2018-06-24T18:14:12.480Z,99.99
2018-06-24T18:15:12.738Z,99.99
2018-06-24T18:16:12.911Z,99.99
2018-06-24T18:17:13.103Z,99.99
2018-06-24T18:18:13.280Z,99.99
2018-06-24T18:19:13.453Z,99.99
2018-06-24T18:20:13.639Z,99.99
2018-06-24T18:21:13.845Z,99.99
2018-06-24T18:22:14.022Z,99.99
2018-06-24T18:23:14.206Z,99.99
2018-06-24T18:24:14.420Z,99.99
2018-06-24T18:25:14.650Z,99.99
2018-06-24T18:26:15.470Z,99.99
2018-06-24T18:27:14.986Z,99.99
2018-06-24T18:28:15.207Z,99.99
2018-06-24T18:29:15.405Z,99.99
2018-06-24T18:30:15.578Z,99.99
2018-06-24T18:31:15.746Z,99.99
2018-06-24T18:32:15.937Z,99.99
2018-06-24T18:33:16.110Z,99.99
2018-06-24T18:34:16.310Z,99.99
2018-06-24T18:35:16.491Z,99.99
2018-06-24T18:36:16.769Z,99.99
2018-06-24T18:37:16.842Z,99.99
2018-06-24T18:38:17.059Z,99.99
2018-06-24T18:39:17.265Z,99.99
2018-06-24T18:40:17.473Z,99.99
2018-06-24T18:41:17.675Z,99.99
2018-06-24T18:42:17.922Z,99.99
2018-06-24T18:43:18.814Z,99.99
2018-06-24T18:44:18.256Z,99.99
2018-06-24T18:45:20.411Z,99.99
2018-06-24T18:46:20.840Z,99.99
2018-06-24T18:47:18.925Z,99.99
2018-06-24T18:48:19.180Z,99.99
2018-06-24T18:49:19.413Z,99.99
2018-06-24T18:50:19.534Z,99.99
2018-06-24T18:51:19.715Z,99.99
2018-06-24T18:52:19.906Z,99.99
2018-06-24T18:53:20.112Z,99.99
2018-06-24T18:54:21.366Z,99.99
2018-06-24T18:55:20.506Z,99.99
2018-06-24T18:56:20.723Z,99.99
2018-06-24T18:57:20.816Z,99.99
2018-06-24T18:58:22.836Z,99.99
2018-06-24T18:59:21.882Z,99.99
2018-06-24T19:00:27.426Z,99.99
2018-06-24T19:01:21.701Z,99.99
2018-06-24T19:02:22.028Z,99.99
2018-06-24T19:03:22.059Z,99.99
2018-06-24T19:04:22.159Z,99.99
2018-06-24T19:05:22.343Z,99.99
2018-06-24T19:06:22.611Z,99.99
2018-06-24T19:07:22.721Z,99.99
2018-06-24T19:08:22.913Z,99.99
2018-06-24T19:09:23.176Z,99.99
2018-06-24T19:10:23.323Z,99.99
2018-06-24T19:11:23.499Z,99.99
2018-06-24T19:12:23.644Z,99.99
2018-06-24T19:14:24.109Z,99.99
2018-06-24T19:15:24.278Z,99.99
2018-06-24T19:16:24.471Z,99.99
2018-06-24T19:17:24.722Z,99.99
2018-06-24T19:18:24.792Z,99.99
2018-06-24T19:19:24.982Z,99.99
2018-06-24T19:20:25.170Z,99.99
2018-06-24T19:21:25.422Z,99.99
2018-06-24T19:22:25.602Z,99.99
2018-06-24T19:23:25.732Z,99.99
2018-06-24T19:24:25.808Z,99.99
2018-06-24T19:25:26.083Z,99.99
2018-06-24T19:26:26.257Z,99.99
2018-06-24T19:27:26.450Z,99.99
2018-06-24T19:28:26.626Z,99.99
2018-06-24T19:29:26.794Z,99.99
2018-06-24T19:30:26.997Z,99.99
2018-06-24T19:31:27.192Z,99.99
2018-06-24T19:32:27.386Z,99.99
2018-06-24T19:33:27.607Z,99.99
2018-06-24T19:34:27.856Z,99.99
2018-06-24T19:35:28.046Z,99.99
2018-06-24T19:36:28.263Z,99.99
2018-06-24T19:37:28.314Z,99.99
2018-06-24T19:38:28.586Z,99.99
2018-06-24T19:39:28.640Z,99.99
2018-06-24T19:40:28.874Z,99.99
2018-06-24T19:41:29.032Z,99.99
2018-06-24T19:42:29.378Z,99.99
2018-06-24T19:43:29.448Z,99.99
2018-06-24T19:44:29.631Z,99.99
2018-06-24T19:45:29.815Z,99.99
2018-06-24T19:46:29.995Z,99.99
2018-06-24T19:47:30.872Z,99.99
2018-06-24T19:48:30.349Z,99.99
2018-06-24T19:49:30.533Z,99.99
2018-06-24T19:50:30.711Z,99.99
2018-06-24T19:51:30.884Z,99.99
2018-06-24T19:52:31.069Z,99.99
2018-06-24T19:53:31.255Z,99.99
2018-06-24T19:54:31.472Z,99.99
2018-06-24T19:55:31.662Z,99.99
2018-06-24T19:56:31.834Z,99.99
2018-06-24T19:57:32.069Z,99.99
2018-06-24T19:58:32.868Z,99.99
2018-06-24T19:59:32.480Z,99.99
2018-06-24T20:00:32.678Z,99.99
2018-06-24T20:01:32.849Z,99.99
2018-06-24T20:02:33.981Z,99.99
2018-06-24T20:03:33.216Z,99.99
2018-06-24T20:04:33.430Z,99.99
2018-06-24T20:05:33.640Z,99.99
2018-06-24T20:06:33.870Z,99.99
2018-06-24T20:07:34.074Z,99.99
2018-06-24T20:08:34.287Z,99.99
2018-06-24T20:09:34.485Z,99.99
2018-06-24T20:10:34.661Z,99.99
2018-06-24T20:11:35.848Z,99.99
2018-06-24T20:12:35.891Z,99.99
2018-06-24T20:13:35.200Z,99.99
2018-06-24T20:14:35.390Z,99.99
2018-06-24T20:15:35.584Z,99.99
2018-06-24T20:16:35.780Z,99.99
2018-06-24T20:17:36.072Z,99.99
2018-06-24T20:18:36.146Z,99.99
2018-06-24T20:19:36.324Z,99.99
2018-06-24T20:20:36.513Z,99.99
2018-06-24T20:21:36.712Z,99.99
2018-06-24T20:22:37.831Z,99.99
2018-06-24T20:23:37.067Z,99.99
2018-06-24T20:24:37.249Z,99.99
2018-06-24T20:25:37.412Z,99.99
2018-06-24T20:26:37.612Z,99.99
2018-06-24T20:27:38.623Z,99.99
2018-06-24T20:28:38.014Z,99.99
2018-06-24T20:29:38.189Z,99.99
2018-06-24T20:30:38.361Z,99.99
2018-06-24T20:31:38.531Z,99.99
2018-06-24T20:32:38.717Z,99.99
2018-06-24T20:33:38.899Z,99.99
2018-06-24T20:34:39.074Z,99.99
2018-06-24T20:35:39.259Z,99.99
2018-06-24T20:36:39.479Z,99.99
2018-06-24T20:37:39.679Z,99.99
2018-06-24T20:38:39.911Z,99.99
2018-06-24T20:39:40.104Z,99.99
2018-06-24T20:40:40.299Z,99.99
2018-06-24T20:41:40.487Z,99.99
2018-06-24T20:42:40.678Z,99.99
2018-06-24T20:43:40.884Z,99.99
2018-06-24T20:44:41.085Z,99.99
2018-06-24T20:45:41.349Z,99.99
2018-06-24T20:46:41.530Z,99.99
2018-06-24T20:47:41.627Z,99.99
2018-06-24T20:48:41.811Z,99.99
2018-06-24T20:49:42.014Z,99.99
2018-06-24T20:50:42.223Z,99.99
2018-06-24T20:51:43.497Z,99.99
2018-06-24T20:52:42.525Z,99.99
2018-06-24T20:53:43.370Z,99.99
2018-06-24T20:54:42.871Z,99.99
2018-06-24T20:55:44.507Z,99.99
2018-06-24T20:56:43.228Z,99.99
2018-06-24T20:57:44.421Z,99.99
2018-06-24T20:58:43.764Z,99.99
2018-06-24T20:59:43.830Z,99.99
2018-06-24T21:00:45.837Z,99.99
2018-06-24T21:01:44.254Z,99.99
2018-06-24T21:02:44.464Z,99.99
2018-06-24T21:03:44.638Z,99.99
2018-06-24T21:04:44.829Z,99.99
2018-06-24T21:05:46.354Z,99.99
2018-06-24T21:06:45.271Z,99.99
2018-06-24T21:07:45.358Z,99.99
2018-06-24T21:08:45.631Z,99.99
2018-06-24T21:09:46.002Z,99.99
2018-06-24T21:10:46.227Z,99.99
2018-06-24T21:11:46.216Z,99.99
2018-06-24T21:12:47.344Z,99.99
2018-06-24T21:13:46.680Z,99.99
2018-06-24T21:14:46.818Z,99.99
2018-06-24T21:15:47.060Z,99.99
2018-06-24T21:16:47.063Z,99.99
2018-06-24T21:17:47.314Z,99.99
2018-06-24T21:18:47.535Z,99.99
2018-06-24T21:19:47.788Z,99.99
2018-06-24T21:20:48.853Z,99.90
2018-06-24T21:21:48.266Z,99.90
2018-06-24T21:22:48.482Z,99.71
2018-06-24T21:23:48.679Z,99.43
2018-06-24T21:24:48.850Z,99.04
2018-06-24T21:25:49.063Z,99.14
2018-06-24T21:26:49.295Z,98.47
2018-06-24T21:27:49.597Z,98.09
2018-06-24T21:28:49.556Z,97.80
2018-06-24T21:29:49.786Z,97.42
2018-06-24T21:30:50.006Z,96.84
2018-06-24T21:31:50.223Z,96.94
2018-06-24T21:33:50.758Z,96.08
2018-06-24T21:34:50.780Z,96.27
2018-06-24T21:35:50.852Z,95.70
2018-06-24T21:36:51.032Z,95.32
2018-06-24T21:37:51.424Z,95.41
2018-06-24T21:38:51.401Z,94.84
2018-06-24T21:39:51.614Z,94.93
2018-06-24T21:40:52.007Z,94.55
2018-06-24T21:41:51.993Z,94.36
2018-06-24T21:42:52.230Z,94.74
2018-06-24T21:43:53.347Z,94.84
2018-06-24T21:44:52.671Z,94.26
2018-06-24T21:45:52.941Z,94.07
2018-06-24T21:46:52.938Z,93.79
2018-06-24T21:47:53.198Z,94.17
2018-06-24T21:48:53.251Z,93.50
2018-06-24T21:49:53.631Z,93.79
2018-06-24T21:50:53.869Z,93.79
2018-06-24T21:51:54.402Z,93.88
2018-06-24T21:52:54.009Z,93.98
2018-06-24T21:53:54.168Z,93.31
2018-06-24T21:54:54.891Z,93.79
2018-06-24T21:55:54.478Z,93.79
2018-06-24T21:56:54.654Z,94.07
2018-06-24T21:57:54.839Z,93.88
2018-06-24T21:58:55.063Z,93.79
2018-06-24T21:59:55.187Z,93.69
2018-06-24T22:00:55.380Z,93.88
2018-06-24T22:01:55.606Z,93.88
2018-06-24T22:02:55.799Z,93.88
2018-06-24T22:03:55.985Z,93.60
2018-06-24T22:04:56.234Z,93.60
2018-06-24T22:05:56.434Z,93.98
2018-06-24T22:06:56.656Z,94.07
2018-06-24T22:07:57.400Z,94.07
2018-06-24T22:08:57.061Z,93.98
2018-06-24T22:09:57.458Z,93.98
2018-06-24T22:10:58.351Z,93.60
2018-06-24T22:11:57.568Z,93.60
2018-06-24T22:12:57.823Z,93.50
2018-06-24T22:13:57.999Z,93.79
2018-06-24T22:14:58.232Z,94.21
2018-06-24T22:15:58.392Z,94.21
2018-06-24T22:16:58.608Z,93.64
2018-06-24T22:17:58.796Z,93.60
2018-06-24T22:18:58.989Z,94.02
2018-06-24T22:19:59.214Z,93.64
2018-06-24T22:21:00.438Z,93.84
2018-06-24T22:21:59.708Z,93.93
2018-06-24T22:22:59.796Z,93.55
2018-06-24T22:23:59.995Z,93.64
2018-06-24T22:25:00.276Z,93.45
2018-06-24T22:26:00.381Z,93.35
2018-06-24T22:27:00.596Z,93.31
2018-06-24T22:28:00.808Z,93.21
2018-06-24T22:29:00.948Z,92.69
2018-06-24T22:30:01.857Z,92.07
2018-06-24T22:31:01.329Z,91.20
2018-06-24T22:32:01.540Z,90.25
2018-06-24T22:33:01.726Z,89.20
2018-06-24T22:34:02.904Z,88.05
2018-06-24T22:35:02.139Z,87.95
2018-06-24T22:36:02.349Z,85.57
2018-06-24T22:37:02.555Z,84.61
2018-06-24T22:38:02.774Z,84.70
2018-06-24T22:39:04.009Z,84.52
2018-06-24T22:40:03.212Z,84.61
2018-06-24T22:41:03.404Z,84.32
2018-06-24T22:42:03.576Z,84.32
2018-06-24T22:43:03.781Z,83.94
2018-06-24T22:44:04.077Z,83.94
2018-06-24T22:45:04.205Z,83.75
2018-06-24T22:46:04.397Z,82.79
2018-06-24T22:47:04.588Z,81.93
2018-06-24T22:48:04.763Z,81.36
2018-06-24T23:59:25.606Z,54.66
